Time;durP1;ratioP1;P1;durP2;ratioP2;P2;SDS_P1;SDS_P2;PMS_P1;PMS_P2;Temp;Humidity;BMP_temperature;BMP_pressure;BME280_temperature;BME280_humidity;BME280_pressure;Samples;Min_cycle;Max_cycle;Signal;HPM_P1;HPM_P2
2024/01/24 00:01:18;;;;;;;36.70;29.70;;;;;;;1.27;100.00;98694.94;108111;1281;22499;-87
2024/01/24 00:03:48;;;;;;;34.70;27.90;;;;;;;1.25;100.00;98691.29;107465;1280;22548;-88
2024/01/24 00:06:16;;;;;;;36.40;32.40;;;;;;;1.21;100.00;98679.23;107441;1279;22681;-89
2024/01/24 00:08:44;;;;;;;34.60;29.20;;;;;;;1.17;100.00;98669.06;107284;1281;22622;-82
2024/01/24 00:11:12;;;;;;;32.00;27.40;;;;;;;1.13;100.00;98666.89;106918;1267;22702;-82
2024/01/24 00:13:41;;;;;;;33.30;24.50;;;;;;;1.12;100.00;98663.67;106928;1267;22779;-82
2024/01/24 00:16:09;;;;;;;28.80;23.40;;;;;;;1.09;100.00;98662.31;107020;1275;24371;-82
2024/01/24 00:18:37;;;;;;;31.50;26.60;;;;;;;1.04;100.00;98658.92;107330;1267;22585;-82
2024/01/24 00:21:08;;;;;;;35.10;29.90;;;;;;;0.98;100.00;98663.56;107081;1281;23355;-82
2024/01/24 00:23:36;;;;;;;34.30;30.30;;;;;;;0.90;100.00;98667.45;107125;1280;25447;-82
2024/01/24 00:26:04;;;;;;;36.10;32.30;;;;;;;0.83;100.00;98661.84;107360;1274;22543;-82
2024/01/24 00:28:32;;;;;;;36.60;32.80;;;;;;;0.72;100.00;98655.58;107233;1279;22547;-83
2024/01/24 00:31:01;;;;;;;34.20;26.30;;;;;;;0.59;100.00;98661.95;107115;1276;24372;-81
2024/01/24 00:33:29;;;;;;;33.60;25.60;;;;;;;0.48;100.00;98648.73;107455;1281;24228;-79
2024/01/24 00:35:58;;;;;;;31.70;24.60;;;;;;;0.34;100.00;98631.86;107191;1281;22557;-77
2024/01/24 00:38:26;;;;;;;32.30;24.90;;;;;;;0.27;100.00;98628.52;106927;1280;22630;-86
2024/01/24 00:40:54;;;;;;;33.50;26.90;;;;;;;0.26;100.00;98632.69;107379;1281;25600;-83
2024/01/24 00:43:23;;;;;;;33.20;27.10;;;;;;;0.27;100.00;98626.20;107323;1280;22540;-82
2024/01/24 00:45:51;;;;;;;32.00;26.80;;;;;;;0.28;100.00;98611.02;106926;1273;24114;-79
2024/01/24 00:48:19;;;;;;;33.70;26.20;;;;;;;0.35;100.00;98605.58;107446;1267;22711;-76
2024/01/24 00:50:47;;;;;;;35.60;26.40;;;;;;;0.54;100.00;98600.78;106974;1274;22556;-79
2024/01/24 00:53:20;;;;;;;34.40;26.00;;;;;;;0.58;100.00;98593.74;107417;1277;25205;-81
2024/01/24 00:55:48;;;;;;;32.90;25.70;;;;;;;0.66;100.00;98601.11;107129;1276;22670;-80
2024/01/24 00:58:17;;;;;;;33.70;26.10;;;;;;;0.67;100.00;98584.12;107067;1273;22544;-84
2024/01/24 01:00:47;;;;;;;30.70;26.90;;;;;;;0.78;100.00;98589.52;107405;1267;25633;-84
2024/01/24 01:03:15;;;;;;;34.20;27.00;;;;;;;0.77;100.00;98596.56;107177;1270;22543;-84
2024/01/24 01:05:44;;;;;;;32.10;24.20;;;;;;;0.75;100.00;98590.87;106852;1276;22574;-83
2024/01/24 01:08:12;;;;;;;33.20;26.10;;;;;;;0.70;100.00;98589.02;106916;1273;22876;-82
2024/01/24 01:10:41;;;;;;;29.10;22.70;;;;;;;0.62;100.00;98590.39;107006;1273;25297;-84
2024/01/24 01:13:09;;;;;;;28.70;23.80;;;;;;;0.57;100.00;98593.87;107031;1269;24923;-84
2024/01/24 01:15:38;;;;;;;29.20;21.80;;;;;;;0.52;100.00;98609.90;107047;1263;25362;-84
2024/01/24 01:18:06;;;;;;;24.70;20.70;;;;;;;0.47;100.00;98610.52;107073;1273;22615;-81
2024/01/24 01:20:34;;;;;;;31.80;23.50;;;;;;;0.41;100.00;98598.70;107083;1273;22664;-85
2024/01/24 01:23:03;;;;;;;31.30;23.70;;;;;;;0.33;100.00;98589.24;107028;1279;22547;-86
2024/01/24 01:25:31;;;;;;;32.20;21.90;;;;;;;0.30;100.00;98583.25;107464;1270;22589;-85
2024/01/24 01:27:59;;;;;;;30.80;23.50;;;;;;;0.29;100.00;98571.88;107854;1281;22559;-86
2024/01/24 01:30:27;;;;;;;30.90;26.20;;;;;;;0.30;100.00;98566.97;108626;1273;22631;-85
2024/01/24 01:32:55;;;;;;;29.20;24.50;;;;;;;0.26;100.00;98562.67;109149;1279;22957;-80
2024/01/24 01:35:23;;;;;;;31.10;25.10;;;;;;;0.23;100.00;98554.47;107387;1280;24361;-87
2024/01/24 01:37:52;;;;;;;29.70;25.70;;;;;;;0.20;100.00;98549.91;107122;1281;25333;-85
2024/01/24 01:40:20;;;;;;;33.90;29.10;;;;;;;0.12;100.00;98552.66;106791;1267;25477;-85
2024/01/24 01:42:48;;;;;;;35.20;30.40;;;;;;;0.04;100.00;98535.96;106893;1280;22548;-84
2024/01/24 01:45:19;;;;;;;36.60;29.50;;;;;;;-0.03;100.00;98525.58;106814;1273;22613;-86
2024/01/24 01:47:48;;;;;;;33.40;28.90;;;;;;;-0.13;100.00;98515.34;106846;1281;22475;-86
2024/01/24 01:50:18;;;;;;;32.00;27.50;;;;;;;-0.19;100.00;98503.73;106949;1281;23022;-85
2024/01/24 01:52:50;;;;;;;31.00;26.00;;;;;;;-0.19;100.00;98498.39;107013;1281;22544;-84
2024/01/24 01:55:20;;;;;;;29.60;25.50;;;;;;;-0.18;100.00;98496.27;106966;1278;22545;-84
2024/01/24 01:57:49;;;;;;;29.40;25.10;;;;;;;-0.18;100.00;98485.13;106856;1270;25111;-86
2024/01/24 02:00:20;;;;;;;31.30;27.00;;;;;;;-0.18;100.00;98478.85;107085;1278;22541;-86
2024/01/24 02:02:50;;;;;;;30.30;25.90;;;;;;;-0.18;100.00;98478.08;106860;1281;23366;-87
2024/01/24 02:05:18;;;;;;;30.20;25.30;;;;;;;-0.18;100.00;98464.98;106999;1281;25562;-86
2024/01/24 02:07:46;;;;;;;31.30;25.60;;;;;;;-0.16;100.00;98452.35;106970;1275;25345;-82
2024/01/24 02:10:15;;;;;;;27.10;21.50;;;;;;;-0.16;100.00;98443.55;106789;1281;25380;-82
2024/01/24 02:12:43;;;;;;;24.80;21.90;;;;;;;-0.12;100.00;98445.77;107485;1270;22596;-94
2024/01/24 02:15:12;;;;;;;23.60;18.30;;;;;;;-0.08;100.00;98436.45;107771;1270;25235;-88
2024/01/24 02:17:40;;;;;;;23.50;18.20;;;;;;;-0.05;100.00;98429.48;107260;1282;25457;-91
2024/01/24 02:20:10;;;;;;;24.20;19.30;;;;;;;-0.01;100.00;98418.13;107175;1280;26536;-89
2024/01/24 02:22:41;;;;;;;28.80;21.50;;;;;;;0.03;100.00;98423.08;106965;1279;22547;-87
2024/01/24 02:25:09;;;;;;;30.90;22.00;;;;;;;0.04;100.00;98419.64;107140;1259;25539;-89
2024/01/24 02:27:38;;;;;;;27.70;19.50;;;;;;;0.05;100.00;98406.05;106941;1276;22578;-89
2024/01/24 02:30:06;;;;;;;29.90;18.70;;;;;;;0.07;100.00;98392.34;107099;1274;22556;-87
2024/01/24 02:32:34;;;;;;;37.50;20.50;;;;;;;0.11;100.00;98384.34;107092;1277;22552;-88
2024/01/24 02:35:04;;;;;;;29.80;19.50;;;;;;;0.17;100.00;98385.39;107217;1281;22547;-87
2024/01/24 02:37:34;;;;;;;29.90;19.10;;;;;;;0.24;100.00;98386.45;107232;1266;22559;-87
2024/01/24 02:40:02;;;;;;;31.30;18.90;;;;;;;0.33;100.00;98374.90;107100;1271;25308;-85
2024/01/24 02:42:31;;;;;;;22.00;14.00;;;;;;;0.40;100.00;98370.54;107001;1281;22498;-92
2024/01/24 02:45:01;;;;;;;22.00;16.00;;;;;;;0.47;100.00;98361.78;107252;1280;22661;-87
2024/01/24 02:47:30;;;;;;;30.80;23.10;;;;;;;0.53;100.00;98358.23;107192;1281;22649;-90
2024/01/24 02:50:02;;;;;;;45.10;39.30;;;;;;;0.58;100.00;98357.30;106968;1282;22547;-90
2024/01/24 02:52:31;;;;;;;59.70;35.70;;;;;;;0.61;100.00;98357.45;107046;1267;25954;-90
2024/01/24 02:54:59;;;;;;;26.80;17.10;;;;;;;0.68;100.00;98344.10;107405;1264;23776;-89
2024/01/24 02:57:28;;;;;;;21.40;12.60;;;;;;;0.76;100.00;98326.23;107300;1278;22582;-91
2024/01/24 02:59:56;;;;;;;18.30;11.10;;;;;;;0.86;100.00;98310.85;107175;1281;22540;-92
2024/01/24 03:02:25;;;;;;;17.20;11.00;;;;;;;0.90;100.00;98302.95;107332;1281;24311;-91
2024/01/24 03:04:53;;;;;;;19.50;13.80;;;;;;;0.93;100.00;98295.58;107443;1281;22584;-85
2024/01/24 03:07:21;;;;;;;17.70;13.40;;;;;;;0.93;100.00;98299.51;107711;1281;22568;-89
2024/01/24 03:09:49;;;;;;;19.50;13.00;;;;;;;0.93;100.00;98293.03;109715;1281;22640;-90
2024/01/24 03:12:19;;;;;;;18.70;12.30;;;;;;;0.94;100.00;98291.94;108334;1281;22952;-91
2024/01/24 03:14:48;;;;;;;17.90;12.70;;;;;;;0.97;100.00;98278.55;107105;1269;24205;-88
2024/01/24 03:17:17;;;;;;;16.40;12.90;;;;;;;1.02;100.00;98270.86;107236;1281;24222;-87
2024/01/24 03:19:45;;;;;;;18.20;13.00;;;;;;;1.05;100.00;98268.50;107339;1266;24196;-88
2024/01/24 03:22:14;;;;;;;17.50;12.80;;;;;;;1.09;100.00;98262.34;109095;1277;22595;-84
2024/01/24 03:24:42;;;;;;;17.90;12.40;;;;;;;1.12;100.00;98264.17;109395;1266;25887;-85
2024/01/24 03:27:14;;;;;;;16.10;11.00;;;;;;;1.14;100.00;98267.55;108952;1281;22644;-85
2024/01/24 03:29:42;;;;;;;15.20;11.60;;;;;;;1.15;100.00;98263.05;108638;1278;23020;-84
2024/01/24 03:32:14;;;;;;;15.80;10.10;;;;;;;1.18;100.00;98269.86;108862;1267;22501;-86
2024/01/24 03:34:52;;;;;;;14.90;9.80;;;;;;;1.24;100.00;98262.79;107647;1281;23141;-86
2024/01/24 03:37:24;;;;;;;18.70;14.00;;;;;;;1.33;100.00;98252.18;107170;1281;22556;-86
2024/01/24 03:39:53;;;;;;;17.80;11.70;;;;;;;1.41;100.00;98240.36;107128;1281;22724;-86
2024/01/24 03:42:21;;;;;;;22.50;14.70;;;;;;;1.48;100.00;98233.78;106916;1278;22554;-86
2024/01/24 03:44:49;;;;;;;18.90;13.10;;;;;;;1.52;100.00;98228.02;107169;1281;22559;-86
2024/01/24 03:47:20;;;;;;;17.40;11.90;;;;;;;1.54;100.00;98217.98;106871;1281;24244;-87
2024/01/24 03:49:48;;;;;;;14.40;11.20;;;;;;;1.56;100.00;98212.35;107030;1281;22561;-87
2024/01/24 03:52:16;;;;;;;13.70;9.50;;;;;;;1.59;100.00;98197.60;107103;1267;22653;-88
2024/01/24 03:54:45;;;;;;;17.00;11.10;;;;;;;1.61;100.00;98176.59;106932;1275;25423;-85
2024/01/24 03:57:13;;;;;;;17.50;12.50;;;;;;;1.66;100.00;98166.84;107084;1270;22632;-88
2024/01/24 03:59:41;;;;;;;15.40;10.50;;;;;;;1.70;100.00;98158.88;107001;1260;24253;-87
2024/01/24 04:02:09;;;;;;;14.00;9.50;;;;;;;1.71;100.00;98144.02;106878;1281;24866;-88
2024/01/24 04:04:38;;;;;;;15.00;9.90;;;;;;;1.72;100.00;98142.39;107004;1275;22516;-89
2024/01/24 04:07:07;;;;;;;17.10;9.90;;;;;;;1.71;100.00;98151.30;106988;1275;22609;-87
2024/01/24 04:09:35;;;;;;;16.20;9.10;;;;;;;1.71;99.89;98165.73;106897;1278;22495;-88
2024/01/24 04:12:03;;;;;;;13.70;8.80;;;;;;;1.71;99.75;98155.27;107186;1281;22535;-89
2024/01/24 04:14:33;;;;;;;15.40;9.20;;;;;;;1.75;99.71;98138.83;106911;1281;22635;-88
2024/01/24 04:17:01;;;;;;;13.30;8.60;;;;;;;1.81;99.47;98133.69;106970;1281;22537;-89
2024/01/24 04:19:29;;;;;;;16.30;9.60;;;;;;;1.86;99.76;98118.59;107132;1281;26518;-89
2024/01/24 04:21:57;;;;;;;13.40;8.40;;;;;;;1.88;99.72;98118.94;107108;1278;25604;-90
2024/01/24 04:24:26;;;;;;;13.70;8.00;;;;;;;1.85;99.45;98111.86;107326;1281;23049;-91
2024/01/24 04:26:54;;;;;;;13.30;8.70;;;;;;;1.89;99.58;98119.17;107331;1278;22685;-91
2024/01/24 04:29:22;;;;;;;15.80;8.90;;;;;;;1.91;99.10;98117.66;107450;1276;23982;-91
2024/01/24 04:31:50;;;;;;;14.90;9.10;;;;;;;1.95;98.96;98113.81;107584;1281;24199;-91
2024/01/24 04:34:18;;;;;;;14.00;8.60;;;;;;;1.99;99.30;98105.17;107429;1260;22593;-91
2024/01/24 04:36:46;;;;;;;11.70;8.50;;;;;;;2.04;99.25;98106.22;107500;1281;22565;-92
2024/01/24 04:39:14;;;;;;;13.30;9.00;;;;;;;2.06;99.44;98098.98;107298;1264;22536;-89
2024/01/24 04:41:44;;;;;;;14.40;9.00;;;;;;;2.07;99.40;98103.19;107123;1270;22664;-92
2024/01/24 04:44:12;;;;;;;14.30;9.80;;;;;;;2.05;99.53;98103.79;108650;1276;22212;-85
2024/01/24 04:46:40;;;;;;;14.60;9.30;;;;;;;2.04;99.52;98110.58;109092;1281;22597;-90
2024/01/24 04:49:08;;;;;;;15.40;8.50;;;;;;;2.06;99.32;98106.05;108099;1281;22552;-89
2024/01/24 04:51:52;;;;;;;16.30;10.20;;;;;;;2.12;99.27;98096.41;107333;1275;22580;-90
2024/01/24 04:54:20;;;;;;;23.20;14.50;;;;;;;2.16;99.28;98086.16;107348;1281;22695;-90
2024/01/24 04:56:49;;;;;;;31.90;22.00;;;;;;;2.21;99.64;98078.60;107538;1275;22915;-89
2024/01/24 04:59:17;;;;;;;25.40;20.00;;;;;;;2.24;99.64;98073.17;107225;1271;22564;-92
2024/01/24 05:01:46;;;;;;;35.60;25.60;;;;;;;2.26;99.46;98078.89;107388;1281;22538;-90
2024/01/24 05:04:14;;;;;;;38.60;32.30;;;;;;;2.26;99.75;98077.84;107553;1281;26757;-91
2024/01/24 05:06:43;;;;;;;43.10;33.40;;;;;;;2.27;99.27;98080.30;107269;1271;25423;-90
2024/01/24 05:09:11;;;;;;;70.80;48.90;;;;;;;2.28;99.64;98083.19;106901;1270;22574;-89
2024/01/24 05:11:42;;;;;;;54.50;48.50;;;;;;;2.32;99.50;98081.75;106865;1273;24128;-88
2024/01/24 05:14:10;;;;;;;53.80;41.10;;;;;;;2.35;99.20;98075.11;106882;1278;24299;-88
2024/01/24 05:16:41;;;;;;;35.70;32.00;;;;;;;2.39;98.90;98065.02;108809;1268;22549;-89
2024/01/24 05:19:09;;;;;;;34.70;31.10;;;;;;;2.42;99.26;98056.55;108834;1281;22659;-90
2024/01/24 05:21:41;;;;;;;35.10;27.70;;;;;;;2.43;99.45;98056.04;107196;1270;22533;-90
2024/01/24 05:24:10;;;;;;;29.50;26.60;;;;;;;2.42;99.24;98053.27;106901;1275;22632;-88
2024/01/24 05:26:38;;;;;;;20.20;15.90;;;;;;;2.40;99.30;98048.08;106849;1270;25249;-88
2024/01/24 05:29:06;;;;;;;16.40;12.60;;;;;;;2.42;99.06;98043.21;106996;1273;25330;-86
2024/01/24 05:31:34;;;;;;;18.10;13.70;;;;;;;2.42;99.47;98032.46;107062;1270;26768;-90
2024/01/24 05:34:02;;;;;;;14.80;8.80;;;;;;;2.46;99.46;98027.79;106802;1267;25339;-89
2024/01/24 05:36:31;;;;;;;16.70;8.10;;;;;;;2.53;98.84;98022.14;106803;1281;23465;-88
2024/01/24 05:38:58;;;;;;;15.40;8.40;;;;;;;2.58;98.51;98019.52;106816;1278;22666;-88
2024/01/24 05:41:26;;;;;;;15.50;9.20;;;;;;;2.61;98.41;98015.20;106875;1265;24232;-88
2024/01/24 05:43:55;;;;;;;15.10;9.90;;;;;;;2.64;98.25;98011.02;106935;1272;22576;-86
2024/01/24 05:46:23;;;;;;;12.20;8.80;;;;;;;2.65;98.16;98004.77;106782;1268;22567;-89
2024/01/24 05:48:51;;;;;;;18.20;10.20;;;;;;;2.64;97.99;97997.03;106897;1278;22786;-87
2024/01/24 05:51:19;;;;;;;17.30;9.90;;;;;;;2.72;97.93;97999.80;106758;1282;22759;-88
2024/01/24 05:53:47;;;;;;;21.30;11.90;;;;;;;2.76;97.97;97994.55;106955;1270;22491;-92
2024/01/24 05:56:15;;;;;;;16.40;9.60;;;;;;;2.79;97.60;97988.52;107624;1281;24229;-90
2024/01/24 05:58:43;;;;;;;24.00;15.10;;;;;;;2.83;97.36;97985.75;107340;1274;22779;-89
2024/01/24 06:01:11;;;;;;;19.50;14.30;;;;;;;2.88;97.55;97974.41;107396;1275;23479;-88
2024/01/24 06:03:43;;;;;;;17.10;12.90;;;;;;;2.93;97.34;97965.16;106926;1265;22622;-85
2024/01/24 06:06:12;;;;;;;16.80;10.80;;;;;;;2.99;97.42;97962.35;106854;1275;25250;-85
2024/01/24 06:08:40;;;;;;;13.90;9.30;;;;;;;3.00;97.57;97957.97;106959;1281;22762;-88
2024/01/24 06:11:09;;;;;;;14.50;9.50;;;;;;;3.02;97.21;97956.77;106885;1281;24179;-88
2024/01/24 06:13:37;;;;;;;15.90;10.10;;;;;;;3.02;97.59;97950.95;106908;1281;22577;-87
2024/01/24 06:16:06;;;;;;;16.60;9.20;;;;;;;3.03;98.17;97934.63;106817;1281;24175;-86
2024/01/24 06:18:34;;;;;;;16.70;10.00;;;;;;;3.01;98.13;97931.41;107760;1259;22654;-86
2024/01/24 06:21:02;;;;;;;15.30;8.90;;;;;;;2.98;98.15;97925.83;108508;1281;24333;-87
2024/01/24 06:23:30;;;;;;;15.80;9.30;;;;;;;2.96;98.32;97923.04;106856;1281;24056;-85
2024/01/24 06:25:59;;;;;;;12.50;8.60;;;;;;;2.98;99.24;97915.98;106894;1281;23507;-86
2024/01/24 06:28:26;;;;;;;14.90;9.80;;;;;;;3.05;99.62;97907.70;106898;1266;23946;-88
2024/01/24 06:30:54;;;;;;;13.90;9.60;;;;;;;3.04;99.82;97890.55;106828;1281;23501;-86
2024/01/24 06:33:24;;;;;;;14.80;9.80;;;;;;;3.04;99.69;97890.34;106893;1281;25467;-85
2024/01/24 06:35:52;;;;;;;14.00;10.00;;;;;;;3.01;99.69;97882.11;107185;1271;22572;-87
2024/01/24 06:38:20;;;;;;;14.90;9.90;;;;;;;3.03;100.00;97882.02;107275;1281;22551;-89
2024/01/24 06:40:49;;;;;;;13.50;10.40;;;;;;;3.04;100.00;97882.89;106958;1281;22588;-88
2024/01/24 06:43:18;;;;;;;16.90;11.00;;;;;;;3.05;100.00;97889.34;106792;1280;24252;-88
2024/01/24 06:45:47;;;;;;;17.10;11.80;;;;;;;3.04;100.00;97884.38;106867;1280;22542;-86
2024/01/24 06:48:15;;;;;;;15.30;10.30;;;;;;;3.04;100.00;97878.30;106897;1273;22804;-87
2024/01/24 06:50:44;;;;;;;18.10;12.50;;;;;;;3.05;100.00;97878.27;107000;1275;23429;-87
2024/01/24 06:53:14;;;;;;;15.40;12.30;;;;;;;3.07;100.00;97870.51;108515;1281;22570;-85
2024/01/24 06:55:44;;;;;;;17.30;13.50;;;;;;;3.06;100.00;97856.77;109045;1274;23885;-88
2024/01/24 06:58:12;;;;;;;14.70;11.40;;;;;;;3.06;100.00;97842.07;107162;1281;25412;-88
2024/01/24 07:00:40;;;;;;;13.20;11.90;;;;;;;3.07;100.00;97839.15;109623;1280;22575;-86
2024/01/24 07:03:08;;;;;;;15.60;11.60;;;;;;;3.10;100.00;97834.54;109907;1280;22568;-88
2024/01/24 07:05:35;;;;;;;13.40;10.40;;;;;;;3.11;100.00;97815.83;108568;1277;22666;-88
2024/01/24 07:08:04;;;;;;;13.00;10.40;;;;;;;3.13;100.00;97809.98;107311;1278;24267;-88
2024/01/24 07:10:33;;;;;;;13.10;9.30;;;;;;;3.12;100.00;97819.70;108836;1282;22997;-89
2024/01/24 07:13:01;;;;;;;10.80;8.70;;;;;;;3.17;100.00;97810.10;108568;1282;22537;-89
2024/01/24 07:15:30;;;;;;;13.30;9.20;;;;;;;3.18;100.00;97795.06;106969;1281;23065;-87
2024/01/24 07:17:58;;;;;;;9.40;7.30;;;;;;;3.21;100.00;97784.97;106925;1273;22560;-87
2024/01/24 07:20:26;;;;;;;14.70;9.80;;;;;;;3.23;100.00;97785.51;106863;1267;25236;-88
2024/01/24 07:22:55;;;;;;;14.30;12.00;;;;;;;3.24;100.00;97781.80;106900;1267;22568;-87
2024/01/24 07:25:23;;;;;;;21.00;19.00;;;;;;;3.24;100.00;97777.89;106833;1281;24257;-88
2024/01/24 07:27:51;;;;;;;19.40;17.20;;;;;;;3.27;100.00;97791.73;106799;1268;22551;-85
2024/01/24 07:30:22;;;;;;;16.10;13.80;;;;;;;3.32;100.00;97792.40;106815;1268;22552;-86
2024/01/24 07:32:50;;;;;;;20.20;18.10;;;;;;;3.34;100.00;97793.38;106820;1275;22792;-88
2024/01/24 07:35:18;;;;;;;19.40;17.80;;;;;;;3.38;100.00;97796.38;106728;1275;22571;-85
2024/01/24 07:37:47;;;;;;;18.30;16.50;;;;;;;3.38;100.00;97783.77;106836;1281;22667;-86
2024/01/24 07:40:18;;;;;;;13.40;12.00;;;;;;;3.45;100.00;97787.75;108424;1275;22560;-87
2024/01/24 07:42:46;;;;;;;13.50;12.20;;;;;;;3.48;100.00;97770.36;108617;1280;24271;-88
2024/01/24 07:45:15;;;;;;;11.30;10.10;;;;;;;3.50;100.00;97735.86;107043;1273;22539;-86
2024/01/24 07:47:44;;;;;;;13.30;11.80;;;;;;;3.50;100.00;97730.38;106804;1273;24197;-88
2024/01/24 07:50:13;;;;;;;9.50;8.50;;;;;;;3.50;100.00;97761.22;106976;1265;22558;-90
2024/01/24 07:52:41;;;;;;;12.90;10.40;;;;;;;3.52;100.00;97771.69;108816;1278;22886;-85
2024/01/24 07:55:11;;;;;;;13.30;10.70;;;;;;;3.56;100.00;97762.55;108503;1280;24397;-88
2024/01/24 07:57:41;;;;;;;12.80;11.40;;;;;;;3.58;100.00;97746.02;107092;1281;22802;-90
2024/01/24 08:00:16;;;;;;;12.00;10.70;;;;;;;3.61;100.00;97744.08;106850;1260;22756;-87
2024/01/24 08:02:45;;;;;;;11.60;10.40;;;;;;;3.62;100.00;97740.52;106731;1279;25548;-84
2024/01/24 08:05:18;;;;;;;10.90;9.90;;;;;;;3.64;100.00;97737.86;107067;1274;25458;-86
2024/01/24 08:07:46;;;;;;;11.50;10.20;;;;;;;3.67;100.00;97723.64;106852;1278;22540;-87
2024/01/24 08:10:16;;;;;;;10.20;8.90;;;;;;;3.68;100.00;97717.42;106801;1277;22563;-85
2024/01/24 08:12:44;;;;;;;10.70;9.70;;;;;;;3.68;100.00;97711.02;106817;1281;22570;-85
2024/01/24 08:15:13;;;;;;;9.40;8.40;;;;;;;3.67;100.00;97698.27;106837;1275;25361;-85
2024/01/24 08:17:42;;;;;;;7.90;7.10;;;;;;;3.68;100.00;97691.25;106790;1275;24464;-86
2024/01/24 08:20:12;;;;;;;9.30;7.80;;;;;;;3.73;100.00;97694.26;106899;1271;23279;-83
2024/01/24 08:22:40;;;;;;;11.40;10.30;;;;;;;3.74;100.00;97696.77;106919;1275;22553;-84
2024/01/24 08:25:08;;;;;;;9.40;8.30;;;;;;;3.73;100.00;97700.07;106953;1281;25263;-85
2024/01/24 08:27:36;;;;;;;11.40;10.20;;;;;;;3.72;100.00;97693.30;106978;1266;22615;-85
2024/01/24 08:30:05;;;;;;;23.70;21.30;;;;;;;3.72;100.00;97696.07;106918;1281;25406;-84
2024/01/24 08:32:33;;;;;;;29.10;26.00;;;;;;;3.73;100.00;97706.84;106916;1280;24633;-84
2024/01/24 08:35:01;;;;;;;26.20;23.60;;;;;;;3.73;100.00;97708.16;108422;1281;22488;-84
2024/01/24 08:37:30;;;;;;;10.80;9.80;;;;;;;3.72;100.00;97711.37;108225;1278;22539;-85
2024/01/24 08:39:58;;;;;;;15.00;13.50;;;;;;;3.71;100.00;97709.07;106881;1266;25413;-85
2024/01/24 08:42:27;;;;;;;14.80;13.40;;;;;;;3.68;100.00;97695.61;106792;1281;22584;-85
2024/01/24 08:44:55;;;;;;;12.90;11.80;;;;;;;3.64;100.00;97686.27;106905;1275;22564;-84
2024/01/24 08:47:24;;;;;;;10.80;9.90;;;;;;;3.65;100.00;97678.66;107227;1281;23888;-85
2024/01/24 08:49:53;;;;;;;10.50;9.40;;;;;;;3.61;100.00;97676.09;106882;1281;25362;-84
2024/01/24 08:52:23;;;;;;;12.50;11.40;;;;;;;3.63;100.00;97666.70;106972;1266;22698;-84
2024/01/24 08:54:51;;;;;;;14.50;12.70;;;;;;;3.62;100.00;97657.70;106948;1262;22554;-85
2024/01/24 08:57:20;;;;;;;18.40;16.90;;;;;;;3.63;100.00;97649.98;106902;1277;22609;-83
2024/01/24 08:59:48;;;;;;;21.50;19.40;;;;;;;3.67;100.00;97655.85;106863;1265;23405;-84
2024/01/24 09:02:16;;;;;;;18.30;16.70;;;;;;;3.70;100.00;97665.73;106987;1265;22543;-84
2024/01/24 09:04:46;;;;;;;12.10;10.90;;;;;;;3.71;100.00;97657.54;107299;1280;22610;-84
2024/01/24 09:07:15;;;;;;;13.70;12.40;;;;;;;3.74;100.00;97641.83;107171;1266;22766;-87
2024/01/24 09:09:43;;;;;;;15.00;13.60;;;;;;;3.77;100.00;97633.73;107061;1281;24218;-84
2024/01/24 09:12:11;;;;;;;12.40;11.20;;;;;;;3.80;100.00;97631.23;106954;1274;25329;-82
2024/01/24 09:14:39;;;;;;;16.30;14.80;;;;;;;3.82;100.00;97619.05;106943;1281;22546;-83
2024/01/24 09:17:07;;;;;;;11.80;10.80;;;;;;;3.83;100.00;97618.88;106955;1266;22559;-86
2024/01/24 09:19:35;;;;;;;12.10;10.90;;;;;;;3.86;100.00;97610.04;106959;1278;22482;-85
2024/01/24 09:22:03;;;;;;;13.20;11.90;;;;;;;3.92;100.00;97612.84;106957;1281;24266;-85
2024/01/24 09:24:32;;;;;;;13.10;11.80;;;;;;;3.93;100.00;97613.14;106930;1281;25614;-85
2024/01/24 09:27:02;;;;;;;14.60;13.30;;;;;;;3.95;100.00;97608.52;108456;1271;22091;-85
2024/01/24 09:29:30;;;;;;;10.80;9.70;;;;;;;4.01;100.00;97614.02;108038;1281;25341;-86
2024/01/24 09:31:58;;;;;;;11.90;10.70;;;;;;;4.04;100.00;97618.05;107022;1281;22777;-86
2024/01/24 09:34:26;;;;;;;10.80;9.70;;;;;;;4.07;100.00;97609.61;106752;1282;22666;-85
2024/01/24 09:36:55;;;;;;;9.30;8.10;;;;;;;4.11;100.00;97607.02;106904;1281;25359;-84
2024/01/24 09:39:25;;;;;;;10.10;8.60;;;;;;;4.13;100.00;97593.95;106954;1269;23513;-84
2024/01/24 09:41:54;;;;;;;9.40;8.50;;;;;;;4.10;100.00;97590.48;107023;1270;24378;-84
2024/01/24 09:44:24;;;;;;;17.90;16.30;;;;;;;4.10;100.00;97581.36;106972;1281;24206;-83
2024/01/24 09:46:53;;;;;;;19.30;17.40;;;;;;;4.10;100.00;97569.63;107021;1281;25419;-83
2024/01/24 09:49:22;;;;;;;17.10;15.50;;;;;;;4.09;100.00;97564.83;106995;1266;24189;-83
2024/01/24 09:51:52;;;;;;;23.60;21.50;;;;;;;4.09;100.00;97557.36;106879;1278;26604;-83
2024/01/24 09:54:21;;;;;;;14.60;13.20;;;;;;;4.10;100.00;97563.50;106786;1268;201879;-83
2024/01/24 09:56:51;;;;;;;14.50;13.10;;;;;;;4.11;100.00;97571.45;106801;1270;22653;-82
2024/01/24 09:59:19;;;;;;;23.80;21.80;;;;;;;4.18;100.00;97568.89;106910;1265;24187;-82
2024/01/24 10:01:49;;;;;;;14.30;13.10;;;;;;;4.21;100.00;97562.55;106828;1275;22665;-82
2024/01/24 10:04:18;;;;;;;15.20;13.80;;;;;;;4.24;100.00;97552.84;106965;1274;22554;-81
2024/01/24 10:06:46;;;;;;;13.40;12.20;;;;;;;4.29;100.00;97561.70;107383;1274;22636;-81
2024/01/24 10:09:15;;;;;;;13.70;12.30;;;;;;;4.37;100.00;97545.32;106897;1270;22588;-80
2024/01/24 10:11:43;;;;;;;14.30;13.00;;;;;;;4.40;100.00;97539.93;106928;1272;24205;-82
2024/01/24 10:14:13;;;;;;;19.60;17.70;;;;;;;4.47;100.00;97527.02;106891;1275;22648;-82
2024/01/24 10:16:42;;;;;;;21.90;19.80;;;;;;;4.50;100.00;97525.79;106887;1269;22540;-81
2024/01/24 10:19:10;;;;;;;16.40;14.90;;;;;;;4.53;100.00;97521.63;106909;1270;24227;-81
2024/01/24 10:21:40;;;;;;;14.20;12.70;;;;;;;4.57;100.00;97522.27;106843;1275;25357;-82
2024/01/24 10:24:09;;;;;;;11.80;10.50;;;;;;;4.59;100.00;97517.93;106859;1270;22649;-81
2024/01/24 10:26:38;;;;;;;10.00;9.00;;;;;;;4.65;100.00;97527.86;106901;1278;25342;-82
2024/01/24 10:29:07;;;;;;;11.10;10.10;;;;;;;4.67;100.00;97550.70;106976;1281;22679;-81
2024/01/24 10:31:35;;;;;;;11.20;9.50;;;;;;;4.72;100.00;97549.24;107003;1281;22907;-81
2024/01/24 10:34:04;;;;;;;11.30;10.20;;;;;;;4.76;100.00;97534.30;106952;1270;22670;-81
2024/01/24 10:36:33;;;;;;;12.00;10.70;;;;;;;4.79;100.00;97533.45;106963;1270;24262;-81
2024/01/24 10:39:05;;;;;;;12.90;11.60;;;;;;;4.84;100.00;97537.11;106877;1281;25425;-82
2024/01/24 10:41:39;;;;;;;11.80;10.70;;;;;;;4.86;100.00;97516.39;106803;1272;22654;-82
2024/01/24 10:44:09;;;;;;;11.60;10.50;;;;;;;4.91;100.00;97514.41;106861;1278;22774;-82
2024/01/24 10:46:40;;;;;;;19.80;12.60;;;;;;;4.93;100.00;97513.77;106767;1276;22657;-81
2024/01/24 10:49:12;;;;;;;13.30;12.00;;;;;;;4.97;100.00;97516.80;106867;1273;22853;-81
2024/01/24 10:51:43;;;;;;;17.50;14.10;;;;;;;4.98;100.00;97502.37;106806;1271;26628;-83
2024/01/24 10:54:15;;;;;;;14.00;12.30;;;;;;;4.99;100.00;97483.98;106971;1266;22631;-83
2024/01/24 10:56:50;;;;;;;12.60;11.30;;;;;;;5.05;100.00;97480.88;106971;1275;23903;-84
2024/01/24 10:59:18;;;;;;;14.80;13.30;;;;;;;5.14;100.00;97488.88;107295;1269;22648;-83
2024/01/24 11:01:47;;;;;;;12.90;11.70;;;;;;;5.19;100.00;97482.06;107562;1271;22613;-84
2024/01/24 11:04:20;;;;;;;14.10;12.80;;;;;;;5.25;100.00;97471.88;107238;1281;25291;-83
2024/01/24 11:06:57;;;;;;;12.20;10.90;;;;;;;5.27;100.00;97478.02;106939;1267;22649;-85
2024/01/24 11:09:45;;;;;;;13.20;11.80;;;;;;;5.32;100.00;97477.61;106868;1281;22548;-84
2024/01/24 11:12:13;;;;;;;12.60;11.10;;;;;;;5.37;100.00;97460.64;106863;1259;22550;-82
2024/01/24 11:14:45;;;;;;;14.50;12.50;;;;;;;5.39;100.00;97457.01;106845;1282;22762;-82
2024/01/24 11:17:13;;;;;;;12.90;11.60;;;;;;;5.45;100.00;97447.83;106877;1282;22536;-81
2024/01/24 11:19:42;;;;;;;13.30;12.10;;;;;;;5.53;100.00;97438.13;107165;1271;22542;-83